sensor_id;sensor_type;location;lat;lon;timestamp;P1;durP1;ratioP1;P2;durP2;ratioP2
21038;SDS011;10678;51.002;4.786;2023-09-08T00:00:40;9.68;;;5.82;;
21038;SDS011;10678;51.002;4.786;2023-09-08T00:03:06;10.98;;;6.30;;
21038;SDS011;10678;51.002;4.786;2023-09-08T00:05:31;10.43;;;5.78;;
21038;SDS011;10678;51.002;4.786;2023-09-08T00:07:57;8.95;;;5.50;;
21038;SDS011;10678;51.002;4.786;2023-09-08T00:10:22;11.25;;;5.15;;
21038;SDS011;10678;51.002;4.786;2023-09-08T00:12:48;9.52;;;5.60;;
21038;SDS011;10678;51.002;4.786;2023-09-08T00:15:14;14.95;;;6.22;;
21038;SDS011;10678;51.002;4.786;2023-09-08T00:17:39;12.18;;;5.75;;
21038;SDS011;10678;51.002;4.786;2023-09-08T00:20:05;11.63;;;6.45;;
21038;SDS011;10678;51.002;4.786;2023-09-08T00:22:35;10.77;;;5.35;;
21038;SDS011;10678;51.002;4.786;2023-09-08T00:25:01;11.68;;;5.68;;
21038;SDS011;10678;51.002;4.786;2023-09-08T00:27:27;9.98;;;6.38;;
21038;SDS011;10678;51.002;4.786;2023-09-08T00:29:52;9.43;;;5.68;;
21038;SDS011;10678;51.002;4.786;2023-09-08T00:32:18;8.45;;;5.95;;
21038;SDS011;10678;51.002;4.786;2023-09-08T00:34:44;12.48;;;5.93;;
21038;SDS011;10678;51.002;4.786;2023-09-08T00:37:09;8.85;;;5.72;;
21038;SDS011;10678;51.002;4.786;2023-09-08T00:39:35;8.55;;;5.40;;
21038;SDS011;10678;51.002;4.786;2023-09-08T00:42:02;11.55;;;6.38;;
21038;SDS011;10678;51.002;4.786;2023-09-08T00:44:28;9.23;;;5.60;;
21038;SDS011;10678;51.002;4.786;2023-09-08T00:46:53;9.20;;;5.25;;
21038;SDS011;10678;51.002;4.786;2023-09-08T00:49:20;9.75;;;5.50;;
21038;SDS011;10678;51.002;4.786;2023-09-08T00:51:45;9.43;;;5.35;;
21038;SDS011;10678;51.002;4.786;2023-09-08T00:54:11;10.20;;;5.78;;
21038;SDS011;10678;51.002;4.786;2023-09-08T00:56:37;11.13;;;6.28;;
21038;SDS011;10678;51.002;4.786;2023-09-08T00:59:04;11.05;;;6.40;;
21038;SDS011;10678;51.002;4.786;2023-09-08T01:01:30;11.73;;;5.40;;
21038;SDS011;10678;51.002;4.786;2023-09-08T01:03:56;8.93;;;5.50;;
21038;SDS011;10678;51.002;4.786;2023-09-08T01:06:22;10.38;;;5.50;;
21038;SDS011;10678;51.002;4.786;2023-09-08T01:08:49;9.73;;;5.40;;
21038;SDS011;10678;51.002;4.786;2023-09-08T01:11:15;7.43;;;5.15;;
21038;SDS011;10678;51.002;4.786;2023-09-08T01:13:43;13.82;;;6.65;;
21038;SDS011;10678;51.002;4.786;2023-09-08T01:16:08;12.35;;;6.55;;
21038;SDS011;10678;51.002;4.786;2023-09-08T01:18:34;12.93;;;5.80;;
21038;SDS011;10678;51.002;4.786;2023-09-08T01:21:11;10.40;;;5.47;;
21038;SDS011;10678;51.002;4.786;2023-09-08T01:26:52;13.45;;;6.18;;
21038;SDS011;10678;51.002;4.786;2023-09-08T01:29:18;8.95;;;5.22;;
21038;SDS011;10678;51.002;4.786;2023-09-08T01:31:45;14.70;;;6.43;;
21038;SDS011;10678;51.002;4.786;2023-09-08T01:34:11;9.82;;;5.53;;
21038;SDS011;10678;51.002;4.786;2023-09-08T01:36:38;10.57;;;5.30;;
21038;SDS011;10678;51.002;4.786;2023-09-08T01:39:03;10.65;;;6.10;;
21038;SDS011;10678;51.002;4.786;2023-09-08T01:41:29;9.95;;;5.57;;
21038;SDS011;10678;51.002;4.786;2023-09-08T01:43:56;11.52;;;6.50;;
21038;SDS011;10678;51.002;4.786;2023-09-08T01:46:22;12.98;;;5.85;;
21038;SDS011;10678;51.002;4.786;2023-09-08T01:48:48;10.55;;;5.32;;
21038;SDS011;10678;51.002;4.786;2023-09-08T01:51:14;9.00;;;5.88;;
21038;SDS011;10678;51.002;4.786;2023-09-08T01:53:39;8.68;;;5.70;;
21038;SDS011;10678;51.002;4.786;2023-09-08T01:56:05;10.98;;;6.65;;
21038;SDS011;10678;51.002;4.786;2023-09-08T01:58:31;9.80;;;5.88;;
21038;SDS011;10678;51.002;4.786;2023-09-08T02:00:58;13.77;;;5.95;;
21038;SDS011;10678;51.002;4.786;2023-09-08T02:03:30;11.68;;;5.82;;
21038;SDS011;10678;51.002;4.786;2023-09-08T02:05:59;8.50;;;5.20;;
21038;SDS011;10678;51.002;4.786;2023-09-08T02:08:24;11.35;;;5.90;;
21038;SDS011;10678;51.002;4.786;2023-09-08T02:10:50;10.40;;;5.82;;
21038;SDS011;10678;51.002;4.786;2023-09-08T02:13:15;10.70;;;6.55;;
21038;SDS011;10678;51.002;4.786;2023-09-08T02:15:41;13.05;;;6.30;;
21038;SDS011;10678;51.002;4.786;2023-09-08T02:18:07;10.63;;;6.60;;
21038;SDS011;10678;51.002;4.786;2023-09-08T02:20:33;9.98;;;6.57;;
21038;SDS011;10678;51.002;4.786;2023-09-08T02:23:03;9.90;;;6.22;;
21038;SDS011;10678;51.002;4.786;2023-09-08T02:25:29;12.35;;;6.65;;
21038;SDS011;10678;51.002;4.786;2023-09-08T02:27:55;11.85;;;5.90;;
21038;SDS011;10678;51.002;4.786;2023-09-08T02:30:21;9.35;;;6.18;;
21038;SDS011;10678;51.002;4.786;2023-09-08T02:32:46;8.77;;;5.97;;
21038;SDS011;10678;51.002;4.786;2023-09-08T02:35:12;12.65;;;6.38;;
21038;SDS011;10678;51.002;4.786;2023-09-08T02:37:37;10.55;;;6.50;;
21038;SDS011;10678;51.002;4.786;2023-09-08T02:40:04;8.05;;;5.25;;
21038;SDS011;10678;51.002;4.786;2023-09-08T02:42:30;11.30;;;6.22;;
21038;SDS011;10678;51.002;4.786;2023-09-08T02:44:56;10.27;;;6.10;;
21038;SDS011;10678;51.002;4.786;2023-09-08T02:47:22;9.70;;;5.75;;
21038;SDS011;10678;51.002;4.786;2023-09-08T02:49:47;8.90;;;6.00;;
21038;SDS011;10678;51.002;4.786;2023-09-08T02:52:13;12.82;;;6.38;;
21038;SDS011;10678;51.002;4.786;2023-09-08T02:54:38;11.25;;;6.00;;
21038;SDS011;10678;51.002;4.786;2023-09-08T02:57:04;9.38;;;6.10;;
21038;SDS011;10678;51.002;4.786;2023-09-08T02:59:30;10.68;;;6.43;;
21038;SDS011;10678;51.002;4.786;2023-09-08T03:01:56;10.15;;;5.68;;
21038;SDS011;10678;51.002;4.786;2023-09-08T03:04:21;12.00;;;5.65;;
21038;SDS011;10678;51.002;4.786;2023-09-08T03:06:47;11.30;;;6.00;;
21038;SDS011;10678;51.002;4.786;2023-09-08T03:09:12;9.15;;;6.03;;
21038;SDS011;10678;51.002;4.786;2023-09-08T03:11:38;12.23;;;6.32;;
21038;SDS011;10678;51.002;4.786;2023-09-08T03:14:04;10.65;;;6.07;;
21038;SDS011;10678;51.002;4.786;2023-09-08T03:16:29;9.13;;;5.65;;
21038;SDS011;10678;51.002;4.786;2023-09-08T03:18:55;9.07;;;5.95;;
21038;SDS011;10678;51.002;4.786;2023-09-08T03:21:21;8.90;;;5.85;;
21038;SDS011;10678;51.002;4.786;2023-09-08T03:23:46;9.02;;;5.72;;
21038;SDS011;10678;51.002;4.786;2023-09-08T03:26:12;11.93;;;6.03;;
21038;SDS011;10678;51.002;4.786;2023-09-08T03:28:38;10.80;;;6.88;;
21038;SDS011;10678;51.002;4.786;2023-09-08T03:31:04;11.52;;;6.38;;
21038;SDS011;10678;51.002;4.786;2023-09-08T03:33:30;8.80;;;6.25;;
21038;SDS011;10678;51.002;4.786;2023-09-08T03:35:56;10.23;;;6.35;;
21038;SDS011;10678;51.002;4.786;2023-09-08T03:38:22;10.45;;;6.05;;
21038;SDS011;10678;51.002;4.786;2023-09-08T03:40:48;9.65;;;5.82;;
21038;SDS011;10678;51.002;4.786;2023-09-08T03:43:13;10.52;;;7.05;;
21038;SDS011;10678;51.002;4.786;2023-09-08T03:45:39;9.48;;;6.40;;
21038;SDS011;10678;51.002;4.786;2023-09-08T03:48:05;9.85;;;6.30;;
21038;SDS011;10678;51.002;4.786;2023-09-08T03:50:31;10.23;;;6.75;;
21038;SDS011;10678;51.002;4.786;2023-09-08T03:52:57;9.50;;;6.18;;
21038;SDS011;10678;51.002;4.786;2023-09-08T03:55:22;9.48;;;6.57;;
21038;SDS011;10678;51.002;4.786;2023-09-08T03:57:48;10.18;;;5.95;;
21038;SDS011;10678;51.002;4.786;2023-09-08T04:00:14;11.77;;;6.70;;
21038;SDS011;10678;51.002;4.786;2023-09-08T04:02:49;15.20;;;6.32;;
21038;SDS011;10678;51.002;4.786;2023-09-08T04:05:16;10.27;;;6.50;;
21038;SDS011;10678;51.002;4.786;2023-09-08T04:07:42;12.20;;;6.40;;
21038;SDS011;10678;51.002;4.786;2023-09-08T04:10:09;12.25;;;6.45;;
21038;SDS011;10678;51.002;4.786;2023-09-08T04:12:35;10.32;;;6.22;;
21038;SDS011;10678;51.002;4.786;2023-09-08T04:15:00;10.68;;;6.28;;
21038;SDS011;10678;51.002;4.786;2023-09-08T04:17:26;8.93;;;5.55;;
21038;SDS011;10678;51.002;4.786;2023-09-08T04:19:52;10.90;;;6.60;;
21038;SDS011;10678;51.002;4.786;2023-09-08T04:22:17;10.90;;;5.95;;
21038;SDS011;10678;51.002;4.786;2023-09-08T04:24:43;11.45;;;6.20;;
21038;SDS011;10678;51.002;4.786;2023-09-08T04:27:08;12.63;;;6.57;;
21038;SDS011;10678;51.002;4.786;2023-09-08T04:29:35;9.60;;;6.10;;
21038;SDS011;10678;51.002;4.786;2023-09-08T04:32:01;12.38;;;5.75;;
21038;SDS011;10678;51.002;4.786;2023-09-08T04:34:34;9.68;;;6.70;;
21038;SDS011;10678;51.002;4.786;2023-09-08T04:37:04;11.57;;;7.03;;
21038;SDS011;10678;51.002;4.786;2023-09-08T04:39:30;12.73;;;7.13;;
21038;SDS011;10678;51.002;4.786;2023-09-08T04:41:56;10.15;;;6.60;;
21038;SDS011;10678;51.002;4.786;2023-09-08T04:44:22;11.82;;;6.97;;
21038;SDS011;10678;51.002;4.786;2023-09-08T04:46:47;11.68;;;6.93;;
21038;SDS011;10678;51.002;4.786;2023-09-08T04:49:13;12.32;;;6.93;;
21038;SDS011;10678;51.002;4.786;2023-09-08T04:51:39;11.30;;;6.45;;
21038;SDS011;10678;51.002;4.786;2023-09-08T04:54:04;11.98;;;6.63;;
21038;SDS011;10678;51.002;4.786;2023-09-08T04:56:30;12.85;;;6.50;;
21038;SDS011;10678;51.002;4.786;2023-09-08T04:58:56;9.65;;;6.47;;
21038;SDS011;10678;51.002;4.786;2023-09-08T05:01:23;8.63;;;6.00;;
21038;SDS011;10678;51.002;4.786;2023-09-08T05:03:48;10.75;;;6.63;;
21038;SDS011;10678;51.002;4.786;2023-09-08T05:06:14;11.80;;;6.95;;
21038;SDS011;10678;51.002;4.786;2023-09-08T05:08:40;13.65;;;6.68;;
21038;SDS011;10678;51.002;4.786;2023-09-08T05:11:05;11.95;;;6.13;;
21038;SDS011;10678;51.002;4.786;2023-09-08T05:13:31;13.13;;;7.18;;
21038;SDS011;10678;51.002;4.786;2023-09-08T05:15:56;13.43;;;7.18;;
21038;SDS011;10678;51.002;4.786;2023-09-08T05:18:35;14.70;;;7.40;;
21038;SDS011;10678;51.002;4.786;2023-09-08T05:21:02;15.15;;;7.00;;
21038;SDS011;10678;51.002;4.786;2023-09-08T05:23:27;9.50;;;6.60;;
21038;SDS011;10678;51.002;4.786;2023-09-08T05:25:53;10.63;;;6.38;;
21038;SDS011;10678;51.002;4.786;2023-09-08T05:28:19;10.98;;;6.78;;
21038;SDS011;10678;51.002;4.786;2023-09-08T05:30:44;12.15;;;6.70;;
21038;SDS011;10678;51.002;4.786;2023-09-08T05:33:10;14.57;;;7.45;;
21038;SDS011;10678;51.002;4.786;2023-09-08T05:35:35;12.48;;;7.75;;
21038;SDS011;10678;51.002;4.786;2023-09-08T05:38:01;12.90;;;7.68;;
21038;SDS011;10678;51.002;4.786;2023-09-08T05:40:27;15.90;;;7.63;;
21038;SDS011;10678;51.002;4.786;2023-09-08T05:42:53;14.15;;;7.55;;
21038;SDS011;10678;51.002;4.786;2023-09-08T05:45:18;15.35;;;7.50;;
21038;SDS011;10678;51.002;4.786;2023-09-08T05:47:44;11.13;;;7.63;;
21038;SDS011;10678;51.002;4.786;2023-09-08T05:50:10;13.05;;;6.82;;
21038;SDS011;10678;51.002;4.786;2023-09-08T05:52:36;11.48;;;6.90;;
21038;SDS011;10678;51.002;4.786;2023-09-08T05:55:01;12.13;;;7.38;;
21038;SDS011;10678;51.002;4.786;2023-09-08T05:57:27;13.48;;;8.10;;
21038;SDS011;10678;51.002;4.786;2023-09-08T05:59:53;11.88;;;8.00;;
21038;SDS011;10678;51.002;4.786;2023-09-08T06:02:19;11.15;;;7.13;;
21038;SDS011;10678;51.002;4.786;2023-09-08T06:04:44;10.35;;;6.85;;
21038;SDS011;10678;51.002;4.786;2023-09-08T06:07:10;9.20;;;6.95;;
21038;SDS011;10678;51.002;4.786;2023-09-08T06:09:35;13.05;;;7.30;;
21038;SDS011;10678;51.002;4.786;2023-09-08T06:12:01;10.73;;;7.40;;
21038;SDS011;10678;51.002;4.786;2023-09-08T06:14:27;10.57;;;7.10;;
21038;SDS011;10678;51.002;4.786;2023-09-08T06:16:52;15.23;;;7.57;;
21038;SDS011;10678;51.002;4.786;2023-09-08T06:19:18;13.35;;;7.85;;
21038;SDS011;10678;51.002;4.786;2023-09-08T06:21:44;9.90;;;6.85;;
21038;SDS011;10678;51.002;4.786;2023-09-08T06:24:09;13.25;;;7.28;;
21038;SDS011;10678;51.002;4.786;2023-09-08T06:26:35;13.20;;;7.78;;
21038;SDS011;10678;51.002;4.786;2023-09-08T06:29:02;13.18;;;7.07;;
21038;SDS011;10678;51.002;4.786;2023-09-08T06:31:27;14.52;;;8.07;;
21038;SDS011;10678;51.002;4.786;2023-09-08T06:33:53;13.25;;;7.57;;
21038;SDS011;10678;51.002;4.786;2023-09-08T06:36:19;13.95;;;7.97;;
21038;SDS011;10678;51.002;4.786;2023-09-08T06:38:44;13.73;;;7.95;;
21038;SDS011;10678;51.002;4.786;2023-09-08T06:41:10;13.02;;;9.02;;
21038;SDS011;10678;51.002;4.786;2023-09-08T06:43:36;13.48;;;7.20;;
21038;SDS011;10678;51.002;4.786;2023-09-08T06:46:02;14.57;;;8.65;;
21038;SDS011;10678;51.002;4.786;2023-09-08T06:48:29;18.73;;;7.70;;
21038;SDS011;10678;51.002;4.786;2023-09-08T06:50:55;11.73;;;7.20;;
21038;SDS011;10678;51.002;4.786;2023-09-08T06:53:21;12.55;;;7.35;;
21038;SDS011;10678;51.002;4.786;2023-09-08T06:55:48;12.88;;;7.75;;
21038;SDS011;10678;51.002;4.786;2023-09-08T06:58:13;13.80;;;8.25;;
21038;SDS011;10678;51.002;4.786;2023-09-08T07:00:42;11.85;;;7.85;;
21038;SDS011;10678;51.002;4.786;2023-09-08T07:03:08;11.48;;;7.50;;
21038;SDS011;10678;51.002;4.786;2023-09-08T07:05:34;13.50;;;8.15;;
21038;SDS011;10678;51.002;4.786;2023-09-08T07:08:00;11.95;;;7.60;;
21038;SDS011;10678;51.002;4.786;2023-09-08T07:10:26;11.13;;;7.25;;
21038;SDS011;10678;51.002;4.786;2023-09-08T07:12:51;10.73;;;6.82;;
21038;SDS011;10678;51.002;4.786;2023-09-08T07:15:17;11.65;;;7.85;;
21038;SDS011;10678;51.002;4.786;2023-09-08T07:17:43;9.32;;;6.97;;
21038;SDS011;10678;51.002;4.786;2023-09-08T07:20:08;10.05;;;7.38;;
21038;SDS011;10678;51.002;4.786;2023-09-08T07:22:34;12.82;;;7.75;;
21038;SDS011;10678;51.002;4.786;2023-09-08T07:25:00;15.13;;;7.68;;
21038;SDS011;10678;51.002;4.786;2023-09-08T07:27:26;11.93;;;7.32;;
21038;SDS011;10678;51.002;4.786;2023-09-08T07:29:51;12.80;;;7.22;;
21038;SDS011;10678;51.002;4.786;2023-09-08T07:32:17;11.65;;;7.63;;
21038;SDS011;10678;51.002;4.786;2023-09-08T07:34:43;9.68;;;7.35;;
21038;SDS011;10678;51.002;4.786;2023-09-08T07:37:09;12.65;;;7.57;;
21038;SDS011;10678;51.002;4.786;2023-09-08T07:39:35;12.57;;;7.45;;
21038;SDS011;10678;51.002;4.786;2023-09-08T07:42:01;12.77;;;6.82;;
21038;SDS011;10678;51.002;4.786;2023-09-08T07:44:27;12.75;;;7.57;;
21038;SDS011;10678;51.002;4.786;2023-09-08T07:46:52;14.95;;;7.70;;
21038;SDS011;10678;51.002;4.786;2023-09-08T07:49:20;10.82;;;7.18;;
21038;SDS011;10678;51.002;4.786;2023-09-08T07:51:45;12.18;;;6.47;;
21038;SDS011;10678;51.002;4.786;2023-09-08T07:54:12;12.02;;;7.10;;
21038;SDS011;10678;51.002;4.786;2023-09-08T07:56:38;9.07;;;6.75;;
21038;SDS011;10678;51.002;4.786;2023-09-08T07:59:05;12.07;;;6.70;;
21038;SDS011;10678;51.002;4.786;2023-09-08T08:01:31;9.68;;;6.38;;
21038;SDS011;10678;51.002;4.786;2023-09-08T08:03:57;12.73;;;6.93;;
21038;SDS011;10678;51.002;4.786;2023-09-08T08:06:23;11.43;;;7.45;;
21038;SDS011;10678;51.002;4.786;2023-09-08T08:08:49;10.35;;;6.05;;
21038;SDS011;10678;51.002;4.786;2023-09-08T08:11:15;11.65;;;6.25;;
21038;SDS011;10678;51.002;4.786;2023-09-08T08:13:45;12.98;;;6.22;;
21038;SDS011;10678;51.002;4.786;2023-09-08T08:16:11;9.63;;;5.65;;
21038;SDS011;10678;51.002;4.786;2023-09-08T08:18:37;10.05;;;5.70;;
21038;SDS011;10678;51.002;4.786;2023-09-08T08:21:02;9.00;;;4.85;;
21038;SDS011;10678;51.002;4.786;2023-09-08T08:23:29;7.70;;;5.07;;
21038;SDS011;10678;51.002;4.786;2023-09-08T08:25:55;11.48;;;4.93;;
21038;SDS011;10678;51.002;4.786;2023-09-08T08:28:21;8.82;;;4.90;;
21038;SDS011;10678;51.002;4.786;2023-09-08T08:30:47;12.65;;;5.10;;
21038;SDS011;10678;51.002;4.786;2023-09-08T08:33:13;12.57;;;5.20;;
21038;SDS011;10678;51.002;4.786;2023-09-08T08:35:39;11.88;;;5.03;;
21038;SDS011;10678;51.002;4.786;2023-09-08T08:38:05;8.57;;;4.60;;
21038;SDS011;10678;51.002;4.786;2023-09-08T08:40:30;8.05;;;5.15;;
21038;SDS011;10678;51.002;4.786;2023-09-08T08:42:57;8.43;;;4.38;;
21038;SDS011;10678;51.002;4.786;2023-09-08T08:45:23;10.48;;;4.63;;
21038;SDS011;10678;51.002;4.786;2023-09-08T08:47:52;8.02;;;5.00;;
21038;SDS011;10678;51.002;4.786;2023-09-08T08:50:18;9.48;;;5.32;;
21038;SDS011;10678;51.002;4.786;2023-09-08T08:52:45;8.95;;;4.50;;
21038;SDS011;10678;51.002;4.786;2023-09-08T08:55:11;10.63;;;5.30;;
21038;SDS011;10678;51.002;4.786;2023-09-08T08:57:40;7.22;;;4.13;;
21038;SDS011;10678;51.002;4.786;2023-09-08T09:00:07;7.03;;;4.53;;
21038;SDS011;10678;51.002;4.786;2023-09-08T09:02:39;8.52;;;4.50;;
21038;SDS011;10678;51.002;4.786;2023-09-08T09:05:08;8.85;;;4.40;;
21038;SDS011;10678;51.002;4.786;2023-09-08T09:07:36;9.23;;;4.50;;
21038;SDS011;10678;51.002;4.786;2023-09-08T09:10:02;10.73;;;4.75;;
21038;SDS011;10678;51.002;4.786;2023-09-08T09:12:29;8.60;;;4.35;;
21038;SDS011;10678;51.002;4.786;2023-09-08T09:14:54;7.00;;;3.83;;
21038;SDS011;10678;51.002;4.786;2023-09-08T09:17:23;8.48;;;4.25;;
21038;SDS011;10678;51.002;4.786;2023-09-08T09:19:48;9.48;;;4.78;;
21038;SDS011;10678;51.002;4.786;2023-09-08T09:22:14;8.07;;;4.13;;
21038;SDS011;10678;51.002;4.786;2023-09-08T09:24:44;10.15;;;4.80;;
21038;SDS011;10678;51.002;4.786;2023-09-08T09:27:10;8.73;;;4.53;;
21038;SDS011;10678;51.002;4.786;2023-09-08T09:29:46;10.43;;;4.50;;
21038;SDS011;10678;51.002;4.786;2023-09-08T09:32:13;7.90;;;4.55;;
21038;SDS011;10678;51.002;4.786;2023-09-08T09:34:49;10.60;;;4.20;;
21038;SDS011;10678;51.002;4.786;2023-09-08T09:37:18;7.35;;;3.95;;
21038;SDS011;10678;51.002;4.786;2023-09-08T09:39:48;9.20;;;3.88;;
21038;SDS011;10678;51.002;4.786;2023-09-08T09:42:17;10.15;;;4.15;;
21038;SDS011;10678;51.002;4.786;2023-09-08T09:44:44;7.75;;;3.83;;
21038;SDS011;10678;51.002;4.786;2023-09-08T09:47:11;10.45;;;3.80;;
21038;SDS011;10678;51.002;4.786;2023-09-08T09:49:42;8.32;;;3.72;;
21038;SDS011;10678;51.002;4.786;2023-09-08T09:52:11;8.35;;;3.83;;
21038;SDS011;10678;51.002;4.786;2023-09-08T09:54:40;9.38;;;3.65;;
21038;SDS011;10678;51.002;4.786;2023-09-08T09:57:07;6.55;;;3.65;;
21038;SDS011;10678;51.002;4.786;2023-09-08T09:59:37;8.20;;;4.05;;
21038;SDS011;10678;51.002;4.786;2023-09-08T10:02:05;8.65;;;3.90;;
21038;SDS011;10678;51.002;4.786;2023-09-08T10:04:40;6.57;;;3.40;;
21038;SDS011;10678;51.002;4.786;2023-09-08T10:07:06;11.25;;;3.67;;
21038;SDS011;10678;51.002;4.786;2023-09-08T10:09:32;8.93;;;4.28;;
21038;SDS011;10678;51.002;4.786;2023-09-08T10:11:59;7.45;;;3.97;;
21038;SDS011;10678;51.002;4.786;2023-09-08T10:14:28;7.13;;;3.83;;
21038;SDS011;10678;51.002;4.786;2023-09-08T10:16:56;9.35;;;4.57;;
21038;SDS011;10678;51.002;4.786;2023-09-08T10:19:24;8.85;;;3.95;;
21038;SDS011;10678;51.002;4.786;2023-09-08T10:21:51;8.98;;;3.90;;
21038;SDS011;10678;51.002;4.786;2023-09-08T10:24:26;7.28;;;3.47;;
21038;SDS011;10678;51.002;4.786;2023-09-08T10:26:58;8.18;;;3.08;;
21038;SDS011;10678;51.002;4.786;2023-09-08T10:29:29;9.90;;;3.30;;
21038;SDS011;10678;51.002;4.786;2023-09-08T10:31:57;11.13;;;3.30;;
21038;SDS011;10678;51.002;4.786;2023-09-08T10:34:24;6.55;;;3.05;;
21038;SDS011;10678;51.002;4.786;2023-09-08T10:36:51;6.07;;;3.72;;
21038;SDS011;10678;51.002;4.786;2023-09-08T10:39:27;7.15;;;3.10;;
21038;SDS011;10678;51.002;4.786;2023-09-08T10:42:41;9.65;;;3.30;;
21038;SDS011;10678;51.002;4.786;2023-09-08T10:47:14;6.07;;;2.83;;
21038;SDS011;10678;51.002;4.786;2023-09-08T10:49:44;6.22;;;2.70;;
21038;SDS011;10678;51.002;4.786;2023-09-08T10:52:11;8.25;;;3.28;;
21038;SDS011;10678;51.002;4.786;2023-09-08T10:54:40;7.93;;;3.28;;
21038;SDS011;10678;51.002;4.786;2023-09-08T10:57:12;7.88;;;3.22;;
21038;SDS011;10678;51.002;4.786;2023-09-08T10:59:39;7.55;;;3.15;;
21038;SDS011;10678;51.002;4.786;2023-09-08T11:02:25;7.93;;;3.38;;
21038;SDS011;10678;51.002;4.786;2023-09-08T11:05:16;7.90;;;3.08;;
21038;SDS011;10678;51.002;4.786;2023-09-08T11:07:44;6.88;;;3.10;;
21038;SDS011;10678;51.002;4.786;2023-09-08T11:10:11;6.72;;;3.35;;
21038;SDS011;10678;51.002;4.786;2023-09-08T11:12:37;8.52;;;3.35;;
21038;SDS011;10678;51.002;4.786;2023-09-08T11:15:04;7.25;;;3.08;;
21038;SDS011;10678;51.002;4.786;2023-09-08T11:17:32;5.50;;;3.03;;
21038;SDS011;10678;51.002;4.786;2023-09-08T11:19:59;11.52;;;3.45;;
21038;SDS011;10678;51.002;4.786;2023-09-08T11:22:25;5.85;;;3.00;;
21038;SDS011;10678;51.002;4.786;2023-09-08T11:24:52;6.72;;;3.25;;
21038;SDS011;10678;51.002;4.786;2023-09-08T11:27:21;8.65;;;3.10;;
21038;SDS011;10678;51.002;4.786;2023-09-08T11:29:47;7.30;;;3.28;;
21038;SDS011;10678;51.002;4.786;2023-09-08T11:32:14;7.38;;;3.42;;
21038;SDS011;10678;51.002;4.786;2023-09-08T11:34:40;10.57;;;3.13;;
21038;SDS011;10678;51.002;4.786;2023-09-08T11:39:39;6.90;;;2.95;;
21038;SDS011;10678;51.002;4.786;2023-09-08T11:42:09;5.60;;;3.10;;
21038;SDS011;10678;51.002;4.786;2023-09-08T11:44:37;8.35;;;3.53;;
21038;SDS011;10678;51.002;4.786;2023-09-08T11:47:03;7.32;;;3.40;;
21038;SDS011;10678;51.002;4.786;2023-09-08T11:49:34;17.48;;;3.53;;
21038;SDS011;10678;51.002;4.786;2023-09-08T11:52:07;6.60;;;3.42;;
21038;SDS011;10678;51.002;4.786;2023-09-08T11:54:33;9.85;;;3.33;;
21038;SDS011;10678;51.002;4.786;2023-09-08T11:57:00;8.70;;;3.13;;
21038;SDS011;10678;51.002;4.786;2023-09-08T11:59:28;6.95;;;3.25;;
21038;SDS011;10678;51.002;4.786;2023-09-08T12:01:56;7.57;;;3.42;;
21038;SDS011;10678;51.002;4.786;2023-09-08T12:04:22;6.88;;;3.10;;
21038;SDS011;10678;51.002;4.786;2023-09-08T12:06:48;6.20;;;3.45;;
21038;SDS011;10678;51.002;4.786;2023-09-08T12:09:15;8.15;;;4.13;;
21038;SDS011;10678;51.002;4.786;2023-09-08T12:11:41;8.32;;;3.45;;
21038;SDS011;10678;51.002;4.786;2023-09-08T12:14:10;8.45;;;2.63;;
21038;SDS011;10678;51.002;4.786;2023-09-08T12:16:37;7.95;;;3.15;;
21038;SDS011;10678;51.002;4.786;2023-09-08T12:19:03;4.93;;;2.58;;
21038;SDS011;10678;51.002;4.786;2023-09-08T12:21:29;5.65;;;2.65;;
21038;SDS011;10678;51.002;4.786;2023-09-08T12:23:56;5.20;;;2.65;;
21038;SDS011;10678;51.002;4.786;2023-09-08T12:26:24;6.18;;;2.72;;
21038;SDS011;10678;51.002;4.786;2023-09-08T12:28:50;8.65;;;2.70;;
21038;SDS011;10678;51.002;4.786;2023-09-08T12:31:17;8.48;;;2.72;;
21038;SDS011;10678;51.002;4.786;2023-09-08T12:33:43;7.10;;;3.40;;
21038;SDS011;10678;51.002;4.786;2023-09-08T12:36:10;9.40;;;2.67;;
21038;SDS011;10678;51.002;4.786;2023-09-08T12:38:39;8.85;;;3.03;;
21038;SDS011;10678;51.002;4.786;2023-09-08T12:41:05;9.30;;;2.50;;
21038;SDS011;10678;51.002;4.786;2023-09-08T12:43:31;9.73;;;3.22;;
21038;SDS011;10678;51.002;4.786;2023-09-08T12:45:56;8.93;;;3.15;;
21038;SDS011;10678;51.002;4.786;2023-09-08T12:48:22;9.40;;;2.80;;
21038;SDS011;10678;51.002;4.786;2023-09-08T12:50:48;9.10;;;2.78;;
21038;SDS011;10678;51.002;4.786;2023-09-08T12:53:14;9.02;;;2.85;;
21038;SDS011;10678;51.002;4.786;2023-09-08T12:55:40;10.43;;;3.03;;
21038;SDS011;10678;51.002;4.786;2023-09-08T12:58:05;11.35;;;3.03;;
21038;SDS011;10678;51.002;4.786;2023-09-08T13:00:31;10.45;;;3.00;;
21038;SDS011;10678;51.002;4.786;2023-09-08T13:02:57;10.95;;;2.88;;
21038;SDS011;10678;51.002;4.786;2023-09-08T13:05:22;10.57;;;2.85;;
21038;SDS011;10678;51.002;4.786;2023-09-08T13:07:48;8.57;;;2.78;;
21038;SDS011;10678;51.002;4.786;2023-09-08T13:10:13;7.65;;;2.95;;
21038;SDS011;10678;51.002;4.786;2023-09-08T13:12:40;11.93;;;3.17;;
21038;SDS011;10678;51.002;4.786;2023-09-08T13:15:06;14.57;;;3.88;;
21038;SDS011;10678;51.002;4.786;2023-09-08T13:17:32;10.18;;;2.83;;
21038;SDS011;10678;51.002;4.786;2023-09-08T13:19:58;9.02;;;3.25;;
21038;SDS011;10678;51.002;4.786;2023-09-08T13:22:23;10.65;;;3.50;;
21038;SDS011;10678;51.002;4.786;2023-09-08T13:24:49;8.25;;;3.42;;
21038;SDS011;10678;51.002;4.786;2023-09-08T13:27:14;9.70;;;3.28;;
21038;SDS011;10678;51.002;4.786;2023-09-08T13:29:42;12.05;;;3.92;;
21038;SDS011;10678;51.002;4.786;2023-09-08T13:32:08;6.15;;;3.40;;
21038;SDS011;10678;51.002;4.786;2023-09-08T13:34:33;10.77;;;3.47;;
21038;SDS011;10678;51.002;4.786;2023-09-08T13:37:01;9.98;;;3.92;;
21038;SDS011;10678;51.002;4.786;2023-09-08T13:39:27;9.32;;;3.85;;
21038;SDS011;10678;51.002;4.786;2023-09-08T13:41:53;11.95;;;3.78;;
21038;SDS011;10678;51.002;4.786;2023-09-08T13:44:21;8.57;;;3.75;;
21038;SDS011;10678;51.002;4.786;2023-09-08T13:46:51;8.07;;;3.78;;
21038;SDS011;10678;51.002;4.786;2023-09-08T13:49:18;14.80;;;3.75;;
21038;SDS011;10678;51.002;4.786;2023-09-08T13:51:44;9.80;;;4.35;;
21038;SDS011;10678;51.002;4.786;2023-09-08T13:54:11;9.48;;;3.90;;
21038;SDS011;10678;51.002;4.786;2023-09-08T13:56:40;8.82;;;4.10;;
21038;SDS011;10678;51.002;4.786;2023-09-08T13:59:07;10.88;;;4.00;;
21038;SDS011;10678;51.002;4.786;2023-09-08T14:01:33;11.52;;;3.92;;
21038;SDS011;10678;51.002;4.786;2023-09-08T14:04:00;7.88;;;4.10;;
21038;SDS011;10678;51.002;4.786;2023-09-08T14:06:26;11.57;;;4.55;;
21038;SDS011;10678;51.002;4.786;2023-09-08T14:08:53;11.00;;;4.35;;
21038;SDS011;10678;51.002;4.786;2023-09-08T14:11:18;12.35;;;4.03;;
21038;SDS011;10678;51.002;4.786;2023-09-08T14:13:44;11.43;;;4.70;;
21038;SDS011;10678;51.002;4.786;2023-09-08T14:16:13;8.10;;;4.20;;
21038;SDS011;10678;51.002;4.786;2023-09-08T14:18:39;7.93;;;4.22;;
21038;SDS011;10678;51.002;4.786;2023-09-08T14:21:05;11.65;;;4.18;;
21038;SDS011;10678;51.002;4.786;2023-09-08T14:23:32;11.38;;;4.47;;
21038;SDS011;10678;51.002;4.786;2023-09-08T14:25:59;12.10;;;4.05;;
21038;SDS011;10678;51.002;4.786;2023-09-08T14:28:25;14.45;;;4.07;;
21038;SDS011;10678;51.002;4.786;2023-09-08T14:30:51;7.78;;;4.25;;
21038;SDS011;10678;51.002;4.786;2023-09-08T14:33:17;10.02;;;3.97;;
21038;SDS011;10678;51.002;4.786;2023-09-08T14:35:43;8.00;;;4.20;;
21038;SDS011;10678;51.002;4.786;2023-09-08T14:38:09;10.27;;;4.40;;
21038;SDS011;10678;51.002;4.786;2023-09-08T14:40:35;9.18;;;4.28;;
21038;SDS011;10678;51.002;4.786;2023-09-08T14:43:01;14.40;;;4.30;;
21038;SDS011;10678;51.002;4.786;2023-09-08T14:45:29;10.20;;;4.63;;